Time;durP1;ratioP1;P1;durP2;ratioP2;P2;SDS_P1;SDS_P2;PMS_P1;PMS_P2;Temp;Humidity;BMP_temperature;BMP_pressure;BME280_temperature;BME280_humidity;BME280_pressure;Samples;Min_cycle;Max_cycle;Signal;HPM_P1;HPM_P2
2023/09/01 00:05:22;;;;;;;5.50;5.20;;;;;;;12.68;100.00;100457.00;6074724;23;20010;-69
2023/09/01 00:07:52;;;;;;;9.13;5.85;;;;;;;12.97;100.00;100497.25;6082483;23;20621;-70
2023/09/01 00:10:20;;;;;;;6.90;6.07;;;;;;;13.56;100.00;100600.53;6069571;23;20030;-68
2023/09/01 00:13:06;;;;;;;6.13;5.72;;;;;;;13.58;100.00;100592.50;6092196;23;20151;-69
2023/09/01 00:16:10;;;;;;;6.72;6.22;;;;;;;13.52;100.00;100588.50;6091406;23;20105;-71
2023/09/01 00:18:37;;;;;;;6.50;6.00;;;;;;;13.11;100.00;100541.09;6066943;23;20073;-70
2023/09/01 00:21:03;;;;;;;6.78;6.05;;;;;;;13.40;100.00;100612.19;6061219;23;20524;-69
2023/09/01 00:23:30;;;;;;;5.95;5.55;;;;;;;12.92;100.00;100534.41;6070353;23;20100;-71
2023/09/01 00:25:59;;;;;;;5.63;5.32;;;;;;;13.03;100.00;100557.44;6084653;23;20014;-70
2023/09/01 00:28:26;;;;;;;5.82;5.50;;;;;;;13.40;100.00;100620.94;6093258;23;20030;-70
2023/09/01 00:30:57;;;;;;;6.55;5.93;;;;;;;13.44;100.00;100624.22;6089649;23;20022;-70
2023/09/01 00:33:27;;;;;;;5.47;5.18;;;;;;;13.19;100.00;100578.34;6064435;23;20029;-70
2023/09/01 00:35:55;;;;;;;5.90;5.50;;;;;;;13.57;100.00;100630.41;6065311;23;20081;-70
2023/09/01 00:38:24;;;;;;;6.28;5.80;;;;;;;12.62;100.00;100462.66;6070369;23;20053;-69
2023/09/01 00:40:51;;;;;;;5.93;5.53;;;;;;;13.61;100.00;100625.75;6091300;23;20025;-71
2023/09/01 00:43:17;;;;;;;6.57;5.97;;;;;;;13.63;100.00;100626.47;6095231;23;20909;-69
2023/09/01 00:45:44;;;;;;;8.32;5.80;;;;;;;13.22;100.00;100566.75;6080928;23;20045;-71
2023/09/01 00:48:15;;;;;;;6.70;6.20;;;;;;;12.88;100.00;100511.00;6073794;23;20050;-71
2023/09/01 00:50:42;;;;;;;6.30;5.85;;;;;;;13.70;100.00;100631.25;6095781;23;20055;-71
2023/09/01 00:53:09;;;;;;;6.05;5.65;;;;;;;13.73;100.00;100619.66;6095734;23;20089;-70
2023/09/01 00:55:37;;;;;;;9.90;6.07;;;;;;;13.64;100.00;100602.66;6092025;23;20408;-71
2023/09/01 00:58:03;;;;;;;8.23;6.30;;;;;;;13.19;100.00;100533.56;6085866;23;20752;-70
2023/09/01 01:00:32;;;;;;;9.30;6.05;;;;;;;13.49;100.00;100578.16;6092260;23;20639;-71
2023/09/01 01:03:05;;;;;;;6.32;5.82;;;;;;;13.65;100.00;100603.50;6086105;23;20038;-70
2023/09/01 01:05:38;;;;;;;;;;;;;;;13.74;100.00;100614.28;6090406;23;20038;-71
2023/09/01 01:08:34;;;;;;;5.85;5.45;;;;;;;13.79;100.00;100607.84;6099599;23;20551;-70
2023/09/01 01:11:30;;;;;;;9.82;6.10;;;;;;;13.77;100.00;100613.22;6081458;23;20037;-72
2023/09/01 01:14:00;;;;;;;6.18;5.78;;;;;;;13.52;100.00;100582.38;6014846;23;20027;-71
2023/09/01 01:16:28;;;;;;;6.30;5.70;;;;;;;13.71;100.00;100624.19;6088193;23;20022;-71
2023/09/01 01:18:59;;;;;;;6.15;5.65;;;;;;;13.55;100.00;100596.22;6093318;23;20033;-69
2023/09/01 01:21:27;;;;;;;6.88;6.25;;;;;;;13.46;100.00;100574.88;6089167;23;20629;-70
2023/09/01 01:23:54;;;;;;;6.63;6.00;;;;;;;13.02;100.00;100504.84;6086744;23;20026;-70
2023/09/01 01:26:23;;;;;;;7.47;6.72;;;;;;;13.57;100.00;100593.47;6093181;23;20081;-70
2023/09/01 01:28:49;;;;;;;6.95;6.30;;;;;;;13.66;100.00;100616.59;6066550;23;20044;-70
2023/09/01 01:31:16;;;;;;;6.65;6.15;;;;;;;13.58;100.00;100589.88;6087952;23;20042;-72
2023/09/01 01:33:50;;;;;;;6.68;6.07;;;;;;;13.89;100.00;100627.38;6085741;23;20655;-69
2023/09/01 01:36:35;;;;;;;7.18;6.47;;;;;;;13.89;100.00;100630.03;6084976;23;20022;-71
2023/09/01 01:39:07;;;;;;;6.32;5.82;;;;;;;13.84;100.00;100632.13;6086343;23;20551;-70
2023/09/01 01:41:52;;;;;;;6.88;6.25;;;;;;;13.77;100.00;100623.78;6058705;23;20062;-69
2023/09/01 01:44:22;;;;;;;6.80;6.00;;;;;;;13.95;100.00;100638.38;6090253;23;20093;-69
2023/09/01 01:46:50;;;;;;;6.03;5.63;;;;;;;13.97;100.00;100651.44;6078439;23;20032;-70
2023/09/01 01:49:18;;;;;;;7.03;5.95;;;;;;;11.85;100.00;100301.81;6061945;23;20084;-70
2023/09/01 01:51:44;;;;;;;7.20;6.05;;;;;;;13.98;100.00;100647.03;6084593;23;20460;-71
2023/09/01 01:54:29;;;;;;;6.28;5.88;;;;;;;13.97;100.00;100656.72;6087349;23;20042;-71
2023/09/01 01:56:56;;;;;;;6.57;5.97;;;;;;;13.73;100.00;100620.50;6064817;23;20088;-70
2023/09/01 01:59:23;;;;;;;6.20;5.70;;;;;;;13.62;100.00;100599.28;6099867;23;20062;-70
2023/09/01 02:01:49;;;;;;;6.10;5.68;;;;;;;13.67;100.00;100610.38;6092029;23;20456;-69
2023/09/01 02:04:16;;;;;;;6.55;6.05;;;;;;;14.00;100.00;100666.25;6062701;23;20057;-69
2023/09/01 02:06:43;;;;;;;6.10;5.65;;;;;;;14.01;100.00;100657.38;6034212;23;20566;-69
2023/09/01 02:09:09;;;;;;;6.70;6.10;;;;;;;13.74;100.00;100609.00;6086284;23;20030;-70
2023/09/01 02:11:37;;;;;;;6.57;5.97;;;;;;;13.92;100.00;100635.09;6088852;23;20045;-70
2023/09/01 02:14:04;;;;;;;6.32;5.80;;;;;;;13.96;100.00;100653.25;6089507;23;20664;-70
2023/09/01 02:16:32;;;;;;;14.15;6.47;;;;;;;13.96;100.00;100653.25;6080699;23;20021;-71
2023/09/01 02:18:58;;;;;;;6.03;5.63;;;;;;;13.72;100.00;100602.97;6088484;23;20034;-71
2023/09/01 02:21:25;;;;;;;10.15;6.40;;;;;;;13.51;100.00;100580.69;6087881;23;20028;-70
2023/09/01 02:23:52;;;;;;;6.57;5.95;;;;;;;13.99;100.00;100659.28;6068719;23;20946;-72
2023/09/01 02:29:28;;;;;;;8.13;6.10;;;;;;;14.01;100.00;100670.56;6093618;23;20085;-70
2023/09/01 02:32:32;;;;;;;6.85;5.60;;;;;;;14.03;100.00;100679.22;6071447;23;20014;-71
2023/09/01 02:35:00;;;;;;;7.78;6.65;;;;;;;13.70;100.00;100628.63;6038530;23;20030;-71
2023/09/01 02:37:27;;;;;;;6.38;5.93;;;;;;;13.78;100.00;100641.31;6062046;23;20547;-72
2023/09/01 02:39:53;;;;;;;6.47;6.00;;;;;;;13.92;100.00;100651.78;6048135;23;20104;-72
2023/09/01 02:42:19;;;;;;;6.57;6.03;;;;;;;13.56;100.00;100599.69;6089268;23;20379;-70
2023/09/01 02:44:46;;;;;;;9.73;6.45;;;;;;;14.08;100.00;100677.13;6061812;23;20018;-71
2023/09/01 02:47:12;;;;;;;6.88;6.18;;;;;;;13.81;100.00;100656.94;6087219;23;20104;-72
2023/09/01 02:49:39;;;;;;;6.22;5.72;;;;;;;14.09;100.00;100686.72;6072706;23;20037;-70
2023/09/01 02:52:05;;;;;;;6.18;5.68;;;;;;;13.53;100.00;100607.78;6063655;23;20038;-70
2023/09/01 02:54:32;;;;;;;6.80;6.05;;;;;;;13.95;100.00;100662.13;6094764;23;20108;-72
2023/09/01 02:56:58;;;;;;;8.85;6.35;;;;;;;13.75;100.00;100625.66;6060568;23;20036;-71
2023/09/01 02:59:25;;;;;;;7.68;6.13;;;;;;;13.89;100.00;100667.81;6068877;23;20042;-71
2023/09/01 03:01:51;;;;;;;6.75;5.97;;;;;;;14.06;100.00;100676.41;6094470;23;20528;-71
2023/09/01 03:04:18;;;;;;;6.22;5.70;;;;;;;14.08;100.00;100679.78;6067969;23;20018;-72
2023/09/01 03:06:44;;;;;;;6.60;6.10;;;;;;;13.74;100.00;100632.75;6090301;23;20015;-71
2023/09/01 03:09:11;;;;;;;6.53;5.93;;;;;;;13.96;100.00;100657.69;6087076;23;20077;-71
2023/09/01 03:11:37;;;;;;;6.93;6.38;;;;;;;13.66;100.00;100613.09;6087730;23;20735;-71
2023/09/01 03:14:04;;;;;;;6.63;6.00;;;;;;;14.02;100.00;100678.38;6090583;23;20030;-71
2023/09/01 03:16:31;;;;;;;6.40;5.85;;;;;;;14.00;100.00;100679.44;6090567;23;20097;-71
2023/09/01 03:18:59;;;;;;;6.25;5.78;;;;;;;13.96;100.00;100681.44;6090227;23;20061;-70
2023/09/01 03:21:30;;;;;;;8.88;6.10;;;;;;;13.96;100.00;100677.00;6086190;23;20092;-71
2023/09/01 03:23:58;;;;;;;6.53;5.93;;;;;;;13.99;100.00;100675.94;6082976;23;20081;-71
2023/09/01 03:26:24;;;;;;;6.35;5.95;;;;;;;13.50;100.00;100608.84;6086721;23;20050;-71
2023/09/01 03:28:51;;;;;;;6.50;5.90;;;;;;;12.60;100.00;100472.44;6085856;23;20064;-71
2023/09/01 03:31:18;;;;;;;6.60;6.10;;;;;;;13.80;100.00;100676.34;6061542;23;20030;-71
2023/09/01 03:33:44;;;;;;;6.88;6.13;;;;;;;13.95;100.00;100712.25;6084154;23;20045;-70
2023/09/01 03:36:11;;;;;;;6.82;6.30;;;;;;;13.44;100.00;100616.31;6083781;23;20013;-71
2023/09/01 03:38:38;;;;;;;6.72;6.13;;;;;;;13.99;100.00;100714.69;6086626;23;20056;-71
2023/09/01 03:41:05;;;;;;;6.30;5.80;;;;;;;13.19;100.00;100604.72;6071732;23;20124;-71
2023/09/01 03:43:33;;;;;;;6.35;5.95;;;;;;;14.01;100.00;100712.78;6066589;23;20021;-71
2023/09/01 03:45:59;;;;;;;6.32;5.88;;;;;;;13.92;100.00;100687.88;6088508;23;20076;-70
2023/09/01 03:48:26;;;;;;;6.60;6.07;;;;;;;13.81;100.00;100658.72;6094310;23;20029;-71
2023/09/01 03:51:10;;;;;;;7.25;6.63;;;;;;;13.89;100.00;100680.13;6053623;23;20043;-70
2023/09/01 03:53:38;;;;;;;6.07;5.68;;;;;;;13.53;100.00;100619.19;6088979;23;20033;-71
2023/09/01 03:56:23;;;;;;;6.50;6.03;;;;;;;14.09;100.00;100695.50;6055878;23;20029;-71
2023/09/01 03:58:50;;;;;;;6.95;5.97;;;;;;;14.10;100.00;100701.63;6085672;23;20540;-71
2023/09/01 04:01:17;;;;;;;6.60;6.13;;;;;;;14.09;100.00;100692.88;6063525;23;20483;-71
2023/09/01 04:03:45;;;;;;;6.28;5.88;;;;;;;14.13;100.00;100693.50;6086422;23;20470;-72
2023/09/01 04:06:12;;;;;;;6.78;6.15;;;;;;;13.67;100.00;100628.84;6062197;23;20026;-72
2023/09/01 04:08:39;;;;;;;6.55;6.10;;;;;;;13.60;100.00;100638.09;6092275;23;20529;-72
2023/09/01 04:11:05;;;;;;;6.75;6.22;;;;;;;13.93;100.00;100686.91;6032492;23;20026;-71
2023/09/01 04:13:33;;;;;;;9.35;6.22;;;;;;;13.81;100.00;100667.50;6086577;23;20017;-71
2023/09/01 04:16:00;;;;;;;7.05;6.45;;;;;;;14.08;100.00;100711.44;6054512;23;20042;-71
2023/09/01 04:18:27;;;;;;;11.85;6.03;;;;;;;14.06;100.00;100713.34;6065857;23;20241;-71
2023/09/01 04:20:54;;;;;;;8.73;5.63;;;;;;;14.10;100.00;100713.03;6087851;23;20089;-70
2023/09/01 04:23:21;;;;;;;6.72;6.13;;;;;;;14.04;100.00;100708.16;6090321;23;20022;-71
2023/09/01 04:25:49;;;;;;;6.93;6.28;;;;;;;13.68;100.00;100654.25;6088647;23;20089;-71
2023/09/01 04:28:16;;;;;;;6.85;6.20;;;;;;;14.10;100.00;100715.66;6066297;23;20528;-71
2023/09/01 04:30:43;;;;;;;6.43;5.93;;;;;;;14.09;100.00;100726.31;6086346;23;20021;-72
2023/09/01 04:33:10;;;;;;;6.90;6.05;;;;;;;13.89;100.00;100696.84;6086667;23;20022;-71
2023/09/01 04:35:38;;;;;;;6.95;6.35;;;;;;;13.35;100.00;100601.97;6089026;23;20518;-71
2023/09/01 04:38:04;;;;;;;6.82;6.40;;;;;;;13.83;100.00;100670.88;6089448;23;20045;-72
2023/09/01 04:40:31;;;;;;;6.30;5.90;;;;;;;13.82;100.00;100673.59;6039928;23;20026;-71
2023/09/01 04:42:57;;;;;;;7.85;6.10;;;;;;;13.91;100.00;100687.03;6088549;23;20041;-71
2023/09/01 04:45:24;;;;;;;6.60;6.20;;;;;;;14.13;100.00;100731.31;6085017;23;20057;-71
2023/09/01 04:47:51;;;;;;;7.10;6.45;;;;;;;14.06;100.00;100731.81;6061373;23;20397;-70
2023/09/01 04:50:18;;;;;;;7.68;7.18;;;;;;;13.54;100.00;100633.22;6089340;23;20096;-72
2023/09/01 04:52:45;;;;;;;6.53;6.03;;;;;;;13.74;100.00;100664.38;6088552;23;20029;-69
2023/09/01 04:55:11;;;;;;;6.80;6.20;;;;;;;13.86;100.00;100688.28;6091498;23;20128;-70
2023/09/01 04:57:38;;;;;;;6.95;6.40;;;;;;;14.12;100.00;100726.13;6089345;23;20430;-70
2023/09/01 05:00:15;;;;;;;6.80;6.30;;;;;;;14.17;100.00;100734.56;6094847;23;20044;-71
2023/09/01 05:02:44;;;;;;;7.05;6.45;;;;;;;14.15;100.00;100736.47;6090589;23;20029;-70
2023/09/01 05:05:12;;;;;;;7.70;6.78;;;;;;;14.18;100.00;100749.47;6091642;23;20112;-71
2023/09/01 05:07:39;;;;;;;7.22;6.53;;;;;;;14.20;100.00;100733.53;6091570;23;20032;-71
2023/09/01 05:10:06;;;;;;;6.63;6.13;;;;;;;14.18;100.00;100738.06;6089985;23;20515;-70
2023/09/01 05:12:32;;;;;;;10.40;6.30;;;;;;;13.62;100.00;100649.38;6096971;23;20022;-71
2023/09/01 05:15:00;;;;;;;7.30;6.20;;;;;;;14.14;100.00;100724.22;6096972;23;20106;-70
2023/09/01 05:17:27;;;;;;;6.72;6.15;;;;;;;13.96;100.00;100702.53;6095011;23;20022;-70
2023/09/01 05:19:53;;;;;;;6.63;6.03;;;;;;;14.11;100.00;100721.78;6061920;23;20021;-70
2023/09/01 05:22:20;;;;;;;6.50;6.10;;;;;;;14.11;100.00;100720.00;6095036;23;20028;-70
2023/09/01 05:24:49;;;;;;;6.50;5.90;;;;;;;14.19;100.00;100745.03;6060476;23;20026;-70
2023/09/01 05:27:19;;;;;;;6.97;6.25;;;;;;;14.14;100.00;100735.63;6087143;23;20659;-71
2023/09/01 05:29:47;;;;;;;6.15;5.70;;;;;;;13.65;100.00;100648.31;6064820;23;20044;-71
2023/09/01 05:32:15;;;;;;;7.07;6.47;;;;;;;13.98;100.00;100699.81;6089489;23;20025;-71
2023/09/01 05:34:41;;;;;;;6.53;6.10;;;;;;;14.29;100.00;100746.97;6083304;23;20093;-71
2023/09/01 05:37:09;;;;;;;6.75;6.30;;;;;;;14.35;100.00;100754.47;6061331;23;20593;-71
2023/09/01 05:39:35;;;;;;;6.75;6.30;;;;;;;14.38;100.00;100757.84;6059689;23;20024;-70
2023/09/01 05:42:03;;;;;;;7.32;6.65;;;;;;;13.33;100.00;100580.09;6094468;23;20018;-71
2023/09/01 05:44:30;;;;;;;6.30;5.90;;;;;;;14.46;100.00;100747.63;6071585;23;20617;-71
2023/09/01 05:46:56;;;;;;;6.55;5.95;;;;;;;14.54;100.00;100763.78;6082124;23;20033;-71
2023/09/01 05:49:26;;;;;;;6.63;5.75;;;;;;;14.49;100.00;100740.34;6097833;23;20048;-71
2023/09/01 05:51:52;;;;;;;7.18;6.47;;;;;;;14.60;100.00;100744.06;6111473;23;20018;-71
2023/09/01 05:54:19;;;;;;;7.10;6.50;;;;;;;14.29;100.00;100698.59;6115507;23;20037;-71
2023/09/01 05:56:46;;;;;;;6.32;5.82;;;;;;;14.41;100.00;100716.22;6114069;23;20021;-71
2023/09/01 05:59:12;;;;;;;6.90;6.40;;;;;;;14.68;100.00;100742.59;6113781;23;20084;-71
2023/09/01 06:01:40;;;;;;;8.00;5.82;;;;;;;14.44;100.00;100696.72;6113313;23;20048;-69
2023/09/01 06:04:07;;;;;;;6.30;5.90;;;;;;;14.70;100.00;100727.47;6114337;23;20030;-68
2023/09/01 06:06:35;;;;;;;9.88;6.00;;;;;;;14.81;100.00;100733.81;6065759;23;20045;-69
2023/09/01 06:09:08;;;;;;;6.82;6.10;;;;;;;14.74;100.00;100712.28;6088834;23;20029;-69
2023/09/01 06:11:36;;;;;;;6.43;5.93;;;;;;;14.91;100.00;100732.22;6112290;23;20044;-69
2023/09/01 06:14:03;;;;;;;7.18;6.60;;;;;;;14.41;100.00;100642.28;6113149;23;20036;-69
2023/09/01 06:16:29;;;;;;;6.35;5.95;;;;;;;14.52;100.00;100650.34;6083912;23;20434;-69
2023/09/01 06:18:59;;;;;;;6.32;5.93;;;;;;;14.73;100.00;100689.44;6090663;23;20025;-71
2023/09/01 06:21:26;;;;;;;6.22;5.70;;;;;;;14.68;100.00;100678.34;6114574;23;20017;-69
2023/09/01 06:23:53;;;;;;;6.57;6.15;;;;;;;15.08;100.00;100742.47;6115641;23;20036;-69
2023/09/01 06:26:20;;;;;;;6.13;5.72;;;;;;;15.16;100.00;100737.47;6116511;23;20053;-69
2023/09/01 06:28:47;;;;;;;6.78;6.28;;;;;;;15.15;100.00;100712.00;6085730;23;20104;-69
2023/09/01 06:31:15;;;;;;;7.43;6.20;;;;;;;14.89;100.00;100668.06;6112703;23;20088;-69
2023/09/01 06:33:46;;;;;;;6.00;5.60;;;;;;;15.34;100.00;100722.09;6115493;23;20033;-69
2023/09/01 06:36:13;;;;;;;6.22;5.80;;;;;;;15.25;100.00;100695.47;6108204;23;20097;-69
2023/09/01 06:38:41;;;;;;;5.82;5.43;;;;;;;15.34;100.00;100689.53;6096849;23;20029;-70
2023/09/01 06:41:08;;;;;;;6.60;6.10;;;;;;;15.29;100.00;100683.72;6086357;23;20034;-69
2023/09/01 06:43:35;;;;;;;6.03;5.70;;;;;;;15.55;100.00;100711.78;6113992;23;20405;-69
2023/09/01 06:46:02;;;;;;;6.15;5.75;;;;;;;15.48;100.00;100696.47;6085770;23;20021;-71
2023/09/01 06:48:30;;;;;;;7.20;6.38;;;;;;;15.05;100.00;100621.09;6083994;23;20025;-71
2023/09/01 06:51:01;;;;;;;6.38;5.90;;;;;;;15.58;100.00;100701.94;6071081;23;20047;-69
2023/09/01 06:53:28;;;;;;;7.50;6.22;;;;;;;14.85;100.00;100585.53;6091178;23;20022;-69
2023/09/01 06:55:54;;;;;;;6.72;6.15;;;;;;;15.40;100.00;100669.75;6088701;23;20057;-69
2023/09/01 06:58:21;;;;;;;6.28;5.90;;;;;;;15.67;100.00;100701.25;6091176;23;20605;-70
2023/09/01 07:00:51;;;;;;;7.60;6.22;;;;;;;15.45;100.00;100663.13;6064080;23;20087;-69
2023/09/01 07:03:19;;;;;;;6.45;5.95;;;;;;;15.59;100.00;100677.16;6089563;23;20033;-68
2023/09/01 07:05:55;;;;;;;6.82;6.22;;;;;;;15.75;100.00;100697.13;6086717;23;20102;-69
2023/09/01 07:08:22;;;;;;;6.25;5.85;;;;;;;15.65;100.00;100671.41;6094248;23;20026;-70
2023/09/01 07:10:48;;;;;;;7.00;6.50;;;;;;;15.68;100.00;100668.56;6085085;23;20041;-70
2023/09/01 07:13:15;;;;;;;6.85;6.35;;;;;;;15.90;100.00;100686.34;6096996;23;20079;-69
2023/09/01 07:15:49;;;;;;;7.32;6.72;;;;;;;15.86;100.00;100675.16;6089076;23;20655;-69
2023/09/01 07:18:16;;;;;;;6.53;5.97;;;;;;;15.75;100.00;100656.56;6094747;23;20045;-69
2023/09/01 07:20:46;;;;;;;6.25;5.75;;;;;;;15.91;100.00;100674.78;6090458;23;20030;-69
2023/09/01 07:23:13;;;;;;;6.38;5.93;;;;;;;15.81;100.00;100649.97;6092135;23;20463;-69
2023/09/01 07:25:40;;;;;;;6.47;6.07;;;;;;;15.68;100.00;100626.22;6066187;23;20046;-70
2023/09/01 07:28:06;;;;;;;6.53;6.13;;;;;;;15.97;100.00;100652.31;6090327;23;20825;-69
2023/09/01 07:30:33;;;;;;;6.82;6.32;;;;;;;16.13;100.00;100676.66;6088986;23;20088;-69
2023/09/01 07:33:00;;;;;;;6.25;5.85;;;;;;;15.87;100.00;100620.41;6047841;23;20030;-71
2023/09/01 07:35:26;;;;;;;6.70;6.20;;;;;;;15.88;100.00;100608.88;6063981;23;20103;-69
2023/09/01 07:37:53;;;;;;;6.78;6.22;;;;;;;15.98;100.00;100622.25;6092088;23;20158;-69
2023/09/01 07:40:19;;;;;;;6.60;6.10;;;;;;;16.40;100.00;100679.00;6091337;23;20021;-69
2023/09/01 07:42:46;;;;;;;6.60;6.18;;;;;;;16.35;100.00;100647.56;6088738;23;20022;-69
2023/09/01 07:45:12;;;;;;;10.88;5.95;;;;;;;16.31;100.00;100638.16;6088563;23;20590;-69
2023/09/01 07:47:39;;;;;;;6.10;5.60;;;;;;;16.38;100.00;100649.16;6090817;23;20042;-69
2023/09/01 07:50:06;;;;;;;6.43;6.03;;;;;;;16.17;100.00;100642.84;6114520;23;20556;-69
2023/09/01 07:52:33;;;;;;;6.63;5.93;;;;;;;15.94;100.00;100633.06;6094779;23;20048;-69
2023/09/01 07:54:59;;;;;;;6.22;5.82;;;;;;;15.75;100.00;100611.59;6121308;23;20088;-70
2023/09/01 07:57:26;;;;;;;6.18;5.78;;;;;;;16.08;100.00;100692.91;6120189;23;20040;-70
2023/09/01 07:59:52;;;;;;;6.28;5.88;;;;;;;15.98;100.00;100691.06;6096961;23;20044;-70
2023/09/01 08:02:19;;;;;;;6.30;5.85;;;;;;;16.02;100.00;100719.00;6121396;23;20021;-70
2023/09/01 08:04:45;;;;;;;6.20;5.72;;;;;;;15.95;100.00;100722.06;6117443;23;20018;-72
2023/09/01 08:07:12;;;;;;;7.15;6.60;;;;;;;15.38;100.00;100627.53;6119902;23;20487;-69
2023/09/01 08:09:38;;;;;;;6.60;6.10;;;;;;;15.88;100.00;100730.63;6124157;23;20146;-69
2023/09/01 08:12:05;;;;;;;6.72;6.22;;;;;;;15.73;100.00;100730.75;6125337;23;20021;-71
2023/09/01 08:14:31;;;;;;;7.00;6.40;;;;;;;15.64;100.00;100734.06;6122140;23;20032;-69
2023/09/01 08:16:58;;;;;;;6.35;5.85;;;;;;;15.20;100.00;100681.75;6096964;23;20099;-69
2023/09/01 08:19:24;;;;;;;6.43;5.75;;;;;;;15.23;100.00;100706.16;6119628;23;20431;-70
2023/09/01 08:21:51;;;;;;;6.50;6.00;;;;;;;15.51;100.00;100776.41;6120526;23;20029;-69
2023/09/01 08:24:17;;;;;;;6.15;5.65;;;;;;;15.40;100.00;100771.06;6128537;23;20498;-69
2023/09/01 08:26:44;;;;;;;6.85;6.28;;;;;;;15.10;100.00;100726.50;6081656;23;20374;-69
2023/09/01 08:29:11;;;;;;;6.97;6.28;;;;;;;15.15;100.00;100749.03;6123372;23;20024;-69
2023/09/01 08:31:38;;;;;;;6.93;6.05;;;;;;;15.46;100.00;100788.31;6098795;23;20021;-69
2023/09/01 08:34:10;;;;;;;7.03;6.40;;;;;;;15.14;100.00;100742.03;6125495;23;20104;-72
2023/09/01 08:36:38;;;;;;;7.85;7.20;;;;;;;15.13;100.00;100748.28;6117351;23;20025;-69
2023/09/01 08:39:07;;;;;;;7.10;6.50;;;;;;;15.31;100.00;100779.63;6125825;23;20045;-69
2023/09/01 08:41:34;;;;;;;6.72;6.30;;;;;;;15.21;100.00;100753.00;6121417;23;20041;-69
2023/09/01 08:44:06;;;;;;;6.60;6.10;;;;;;;15.27;100.00;100770.22;6122536;23;20511;-69
2023/09/01 08:46:34;;;;;;;6.72;6.10;;;;;;;15.39;100.00;100795.81;6118480;23;20074;-69
2023/09/01 08:49:02;;;;;;;6.47;5.95;;;;;;;14.98;100.00;100724.72;6126432;23;20424;-71
2023/09/01 08:51:30;;;;;;;8.45;6.47;;;;;;;15.57;100.00;100806.88;6095623;23;20092;-69
2023/09/01 08:53:57;;;;;;;6.53;6.03;;;;;;;15.62;100.00;100803.94;6094539;23;20024;-71
2023/09/01 08:56:23;;;;;;;6.53;6.03;;;;;;;15.75;100.00;100797.66;6118072;23;20024;-69
2023/09/01 08:58:50;;;;;;;6.35;5.95;;;;;;;15.80;100.00;100799.13;6099489;23;20033;-69
2023/09/01 09:01:17;;;;;;;6.93;6.32;;;;;;;15.84;100.00;100806.72;6133949;23;20013;-68
2023/09/01 09:03:43;;;;;;;6.43;6.03;;;;;;;16.00;100.00;100818.88;6122005;23;20673;-69
2023/09/01 09:06:13;;;;;;;7.60;6.00;;;;;;;15.82;100.00;100790.13;6092942;23;20028;-69
2023/09/01 09:08:41;;;;;;;6.38;5.78;;;;;;;15.77;100.00;100779.00;6095640;23;20029;-69
2023/09/01 09:11:15;;;;;;;6.95;6.45;;;;;;;15.70;100.00;100772.47;6100260;23;20029;-69
2023/09/01 09:13:42;;;;;;;6.40;5.93;;;;;;;15.94;100.00;100817.50;6099295;23;20041;-70
2023/09/01 09:16:16;;;;;;;6.05;5.65;;;;;;;15.94;100.00;100828.94;6128679;23;20132;-69
2023/09/01 09:18:45;;;;;;;6.18;5.72;;;;;;;15.75;100.00;100817.97;6116821;23;20021;-69
2023/09/01 09:21:29;;;;;;;6.30;5.90;;;;;;;15.81;100.00;100840.50;6117864;23;20032;-70
2023/09/01 09:24:00;;;;;;;8.75;6.32;;;;;;;15.51;100.00;100802.88;6117484;23;20580;-70
2023/09/01 09:26:55;;;;;;;6.60;6.10;;;;;;;15.75;100.00;100847.06;6102760;23;20021;-69
2023/09/01 09:29:21;;;;;;;6.07;5.68;;;;;;;14.99;100.00;100716.66;6128305;23;20092;-69
2023/09/01 09:31:48;;;;;;;5.63;5.32;;;;;;;15.70;100.00;100842.09;6121647;23;20087;-71
2023/09/01 09:34:19;;;;;;;6.25;5.85;;;;;;;15.70;100.00;100846.56;6118984;23;20095;-69
2023/09/01 09:36:48;;;;;;;6.40;6.00;;;;;;;15.71;100.00;100862.28;6109923;23;20033;-70
2023/09/01 09:39:23;;;;;;;5.93;5.53;;;;;;;15.58;100.00;100836.84;6097041;23;20041;-69
2023/09/01 09:41:50;;;;;;;5.80;5.50;;;;;;;15.11;100.00;100773.13;6121677;23;20048;-69
2023/09/01 09:44:30;;;;;;;5.75;5.35;;;;;;;15.65;100.00;100862.72;6096360;23;20042;-70
2023/09/01 09:46:57;;;;;;;5.35;5.05;;;;;;;15.73;100.00;100868.34;6121821;23;20435;-70
2023/09/01 09:49:24;;;;;;;5.70;5.40;;;;;;;15.80;100.00;100879.38;6118210;23;20021;-72
2023/09/01 09:51:54;;;;;;;5.70;5.40;;;;;;;15.51;100.00;100818.72;6116084;23;20020;-69
2023/09/01 09:54:21;;;;;;;5.38;5.10;;;;;;;15.94;100.00;100884.50;6122033;23;20088;-70
2023/09/01 09:56:50;;;;;;;5.53;5.22;;;;;;;15.97;100.00;100878.13;6118333;23;20021;-69
2023/09/01 09:59:45;;;;;;;5.80;5.40;;;;;;;16.02;100.00;100880.47;6095662;23;20625;-69
2023/09/01 10:02:30;;;;;;;5.60;5.30;;;;;;;15.92;100.00;100854.66;6123698;23;20112;-72
2023/09/01 10:04:58;;;;;;;5.20;5.00;;;;;;;15.46;100.00;100783.84;6095563;23;20016;-70
2023/09/01 10:07:25;;;;;;;5.70;5.40;;;;;;;15.55;100.00;100819.38;6091086;23;20046;-69
2023/09/01 10:09:52;;;;;;;5.22;4.93;;;;;;;16.06;100.00;100879.31;6125048;23;20041;-71
2023/09/01 10:12:19;;;;;;;6.03;5.63;;;;;;;15.25;100.00;100737.78;6126758;23;20194;-71
2023/09/01 10:14:49;;;;;;;5.95;5.47;;;;;;;16.20;100.00;100873.84;6120354;23;20028;-70
2023/09/01 10:17:16;;;;;;;5.80;5.50;;;;;;;15.87;100.00;100809.13;6115940;23;20059;-70
2023/09/01 10:19:45;;;;;;;5.63;5.32;;;;;;;16.32;100.00;100848.25;6097485;23;20101;-70
2023/09/01 10:22:16;;;;;;;5.68;5.38;;;;;;;16.48;100.00;100847.97;6097820;23;20750;-70
2023/09/01 10:25:12;;;;;;;6.10;5.70;;;;;;;16.56;100.00;100864.13;6116402;23;20021;-70
2023/09/01 10:28:10;;;;;;;6.07;5.68;;;;;;;16.64;100.00;100860.91;6098459;23;20637;-71
2023/09/01 10:30:41;;;;;;;6.35;5.88;;;;;;;16.66;100.00;100851.88;6066161;23;20509;-70
2023/09/01 10:33:16;;;;;;;6.00;5.50;;;;;;;16.45;100.00;100822.53;6126605;23;20032;-70
2023/09/01 10:35:48;;;;;;;6.22;5.82;;;;;;;16.43;100.00;100821.81;6119946;23;20409;-69
2023/09/01 10:38:22;;;;;;;6.78;6.18;;;;;;;16.06;100.00;100754.88;6086975;23;20045;-70
2023/09/01 10:40:53;;;;;;;5.53;5.22;;;;;;;16.19;100.00;100787.41;6120358;23;20096;-71
2023/09/01 10:43:35;;;;;;;5.95;5.65;;;;;;;16.70;100.00;100848.03;6119646;23;20029;-71
2023/09/01 10:46:16;;;;;;;6.25;5.85;;;;;;;16.79;100.00;100846.50;6119906;23;20053;-70
2023/09/01 10:48:50;;;;;;;6.18;5.78;;;;;;;16.50;100.00;100806.31;6125924;23;20072;-70
2023/09/01 10:51:18;;;;;;;6.40;6.00;;;;;;;16.65;100.00;100799.84;6091888;23;20033;-71
2023/09/01 10:53:48;;;;;;;6.45;6.05;;;;;;;16.87;100.00;100840.63;6122800;23;20041;-70
2023/09/01 10:56:15;;;;;;;7.30;6.85;;;;;;;16.56;100.00;100774.06;6074436;23;20252;-70
2023/09/01 10:58:53;;;;;;;7.18;6.57;;;;;;;17.07;100.00;100841.75;6074786;23;20393;-70
2023/09/01 11:01:46;;;;;;;6.47;5.88;;;;;;;17.20;100.00;100842.50;6128694;23;20503;-71
2023/09/01 11:04:15;;;;;;;6.30;5.90;;;;;;;17.25;100.00;100836.84;6093774;23;20093;-70
2023/09/01 11:07:00;;;;;;;6.40;6.00;;;;;;;17.22;100.00;100810.53;6122233;23;20037;-70
2023/09/01 11:09:32;;;;;;;6.47;6.07;;;;;;;17.49;100.00;100834.91;6096124;23;20026;-70
2023/09/01 11:12:00;;;;;;;6.72;6.32;;;;;;;17.18;100.00;100771.97;6098244;23;20019;-70
2023/09/01 11:14:26;;;;;;;6.80;6.35;;;;;;;17.01;100.00;100754.75;6112156;23;20044;-70
2023/09/01 11:16:53;;;;;;;7.28;6.70;;;;;;;17.42;100.00;100817.78;6114957;23;20029;-70
2023/09/01 11:19:19;;;;;;;7.13;6.10;;;;;;;17.17;100.00;100770.28;6097126;23;20090;-70
2023/09/01 11:21:46;;;;;;;6.20;5.80;;;;;;;17.09;100.00;100766.41;6111984;23;20040;-71
2023/09/01 11:24:14;;;;;;;7.28;6.70;;;;;;;17.37;100.00;100819.94;6120320;23;20033;-70
2023/09/01 11:26:41;;;;;;;6.60;6.20;;;;;;;17.54;100.00;100822.13;6113770;23;20397;-70
2023/09/01 11:29:11;;;;;;;6.43;6.00;;;;;;;17.64;100.00;100824.03;6123468;23;20029;-70
2023/09/01 11:31:42;;;;;;;7.38;6.88;;;;;;;17.69;100.00;100824.50;6099479;23;20030;-71
2023/09/01 11:34:10;;;;;;;6.38;6.03;;;;;;;17.70;100.00;100824.41;6127791;23;20026;-70